Detalii statie CEREAMIN SMEENI [00001CFD]

Toti senzorii

Date Temperatura solului [C]Precipitatii [mm]Voltaj baterie [mV]Leaf Wetness [Min]HC Air temperature [C]HC Relative humidity [%]Punctul de roua [C]
medieminmaxsumaultimatimpmedieminmaxmediemediemin
2019-04-19 19:00:00 13 12.8 13.3 0.6 7050 7.26 7.19 7.31 100 7.2 7.1
2019-04-19 20:00:00 12.6 12.4 12.9 0 6982 6.67 6.16 7.13 100 6.6 6.1
2019-04-19 21:00:00 12.2 12 12.5 0 6932 5.01 4.25 5.95 100 4.9 4.2
2019-04-19 22:00:00 11.7 11.5 12 0.2 6904 4.36 3.85 4.97 100 4.3 3.8
2019-04-19 23:00:00 11.3 11.1 11.5 0 6894 3.89 3.48 4.18 100 3.8 3.4
2019-04-20 00:00:00 10.9 10.7 11.2 0 6874 3.92 3.27 4.42 100 3.8 3.2
2019-04-20 01:00:00 10.6 10.4 10.9 0 6874 3.88 3.29 4.5 100 3.8 3.2
2019-04-20 02:00:00 10.4 10.3 10.6 0 6864 4.56 4.21 5.42 100 4.5 4.2
2019-04-20 03:00:00 10.2 10.1 10.4 0 6864 5.84 5.51 6.07 100 5.8 5.5
2019-04-20 04:00:00 10.1 10.1 10.2 0 6854 5.61 4.79 6.02 100 5.5 4.7
2019-04-20 05:00:00 10 9.9 10.2 0 6854 3.65 3.14 4.64 100 3.6 3.1
2019-04-20 06:00:00 9.7 9.6 9.9 0 6844 2.73 2.25 3.21 100 2.6 2.2
2019-04-20 07:00:00 9.5 9.3 9.7 0 6894 3.88 2.94 5.82 100 3.8 2.9
2019-04-20 08:00:00 9.3 9.2 9.4 0 7128 8.74 6.75 10.13 79.65 5.1 4.1
2019-04-20 09:00:00 9.4 9.2 9.7 0 7304 11.52 10.43 12.62 54.46 2.4 1.6
2019-04-20 10:00:00 10 9.6 10.5 0 7294 13.12 12.54 13.78 44.3 1 0.2
2019-04-20 11:00:00 11.1 10.6 11.7 0 7294 14.45 14.02 15.07 34.98 -0.9 -3
2019-04-20 12:00:00 12.2 11.6 12.7 0 7294 15.11 14.07 15.89 29.36 -2.8 -4.6
2019-04-20 13:00:00 13.3 12.8 13.8 0 7294 16.2 15.54 16.74 25.48 -3.8 -6.7
2019-04-20 14:00:00 14.3 14 14.6 0 7294 15.69 13.89 16.82 29.43 -2.3 -4.9
2019-04-20 15:00:00 14.8 14.7 15 0 7304 15.1 13.77 16.17 29.93 -2.5 -3.1
2019-04-20 16:00:00 14.9 14.8 15.1 0 7284 14.81 13.48 16.1 30.72 -2.3 -3.4
2019-04-20 17:00:00 14.7 14.5 14.9 0 7284 13.71 13.19 14.56 34.25 -1.9 -3.2
2019-04-20 18:00:00 14.3 14.1 14.5 0 7264 12.84 12.38 13.09 36.54 -1.7 -2.4
2019-04-20 19:00:00 13.9 13.7 14.2 0 7148 11.88 10.33 12.88 41.57 -0.9 -2.2
2019-04-20 20:00:00 13.5 13.2 13.8 0 7070 8.15 6.97 9.66 56.55 0 -0.3
2019-04-20 21:00:00 12.9 12.7 13.1 0 6982 6.85 5.39 7.61 62.07 0 -0.3
2019-04-20 22:00:00 12.4 12.2 12.7 0 6942 6.2 4.85 6.76 66.39 0.2 -0.2
2019-04-20 23:00:00 12 11.8 12.3 0 6914 5.6 4.33 6.82 68.85 0.2 -0.2
2019-04-21 00:00:00 11.6 11.4 11.9 0 6904 4.79 3.66 5.48 76.81 0.8 0.6
2019-04-21 01:00:00 11.3 11.1 11.4 0 6884 5.34 5.22 5.48 74.84 1 0.9
2019-04-21 02:00:00 11 10.9 11.2 0 6884 5.07 4.6 5.48 77.77 1.4 1.1
2019-04-21 03:00:00 10.8 10.7 10.9 0 6884 4.4 4.19 4.62 81.38 1.3 1.1
2019-04-21 04:00:00 10.5 10.4 10.8 0 6874 3.74 3.33 4.12 83.84 1.1 0.9
2019-04-21 05:00:00 10.3 10.1 10.5 0 6864 4.08 3.5 4.4 81.48 1.1 0.9
2019-04-21 06:00:00 10.1 10 10.3 0 6864 3.01 2.61 3.39 89.8 1.3 0.3
2019-04-21 07:00:00 9.9 9.8 10.1 0 6914 3.86 3.09 5.24 91.87 2.5 1.8
2019-04-21 08:00:00 9.8 9.7 9.9 0 7186 6.72 5.52 8.34 78.47 3 2.6
2019-04-21 09:00:00 9.9 9.8 10.3 0 7304 10.61 8.7 12.06 53.35 1.3 0.3
2019-04-21 10:00:00 10.6 10.2 11.1 0 7294 13.02 12.34 13.5 47.26 1.8 0.7
2019-04-21 11:00:00 11.5 11.1 12.1 0 7294 14.81 13.69 15.92 42.85 2 1.4
2019-04-21 12:00:00 12.6 12.2 13.2 0 7284 16.85 15.42 17.83 40.41 3.1 2.2
2019-04-21 13:00:00 13.9 13.3 14.5 0 7284 18.35 17.68 18.92 34.62 2.2 0.3
2019-04-21 14:00:00 15 14.6 15.4 0 7294 18.49 17.58 19.22 27.79 -0.6 -2.3
2019-04-21 15:00:00 15.6 15.4 15.9 0 7294 18.65 17.38 19.59 30.47 0.6 -0.4
2019-04-21 16:00:00 16 15.9 16.2 0 7284 18.5 17.75 19.37 30.35 0.5 -0.4
2019-04-21 17:00:00 15.9 15.7 16.2 0 7294 16.75 16.38 17.53 33.67 0.4 -0.2
2019-04-21 18:00:00 15.6 15.4 15.8 0 7216 15.84 15.35 16.39 37.71 1.2 0.3